Date,TemperatureHighF,TemperatureAvgF,TemperatureLowF,DewpointHighF,DewpointAvgF,DewpointLowF,HumidityHigh,HumidityAvg,HumidityLow,PressureMaxIn,PressureMinIn,WindSpeedMaxMPH,WindSpeedAvgMPH,GustSpeedMaxMPH,PrecipitationSumIn
2014-1-1,56,40,25,23,18,13,75,46,19,30.37,30.17,18,2,19,0.00
2014-1-2,53,36,22,24,16,10,81,49,17,30.46,30.31,7,0,7,0.00
2014-1-3,53,37,22,22,18,15,76,50,24,30.33,30.00,11,1,11,0.00
2014-1-4,63,42,27,23,16,-2,74,39,14,30.09,29.70,23,3,23,0.00
2014-1-5,40,30,20,6,1,-8,53,31,13,30.47,30.09,18,3,18,0.00
2014-1-6,45,31,18,4,0,-2,45,29,14,30.63,30.45,13,1,13,0.00
2014-1-7,44,31,17,9,6,1,61,37,17,30.48,30.23,6,0,6,0.00
2014-1-8,53,34,20,16,12,9,70,43,19,30.30,30.14,7,0,7,0.00
2014-1-9,52,36,20,18,15,13,78,46,22,30.22,30.01,7,1,8,0.00
2014-1-10,56,42,28,19,15,12,55,35,18,30.17,29.86,23,2,23,0.00
2014-1-11,58,44,32,22,20,15,56,40,24,30.28,30.01,11,1,11,0.00
2014-1-12,60,42,33,22,15,1,58,36,16,30.23,29.83,21,2,21,0.00
2014-1-13,50,39,29,15,10,6,42,32,20,30.41,30.22,21,4,21,0.00
2014-1-14,56,43,34,17,14,10,47,33,17,30.44,30.31,19,4,21,0.00
2014-1-15,60,41,25,18,15,12,65,37,18,30.47,30.23,13,2,13,0.00
2014-1-16,59,43,29,16,12,8,51,31,15,30.31,30.15,10,1,10,0.00
2014-1-17,55,38,26,16,13,10,62,38,18,30.38,30.20,8,0,8,0.00
2014-1-18,59,40,24,16,14,10,64,39,15,30.39,30.26,6,0,6,0.00
2014-1-19,59,39,22,17,15,12,68,41,17,30.44,30.19,7,1,7,0.00
2014-1-20,61,45,27,18,13,7,56,31,12,30.45,30.21,21,2,21,0.00
2014-1-21,58,40,23,15,13,10,64,36,16,30.52,30.27,7,0,7,0.00
2014-1-22,47,35,23,14,12,10,60,41,23,30.29,30.01,7,0,7,0.00
2014-1-23,35,30,20,19,15,10,68,53,38,30.71,30.10,31,8,31,0.00
2014-1-24,44,28,14,17,14,8,84,58,32,30.81,30.58,6,0,6,0.00
2014-1-25,54,37,24,16,13,2,69,42,18,30.59,30.19,6,0,7,0.00
2014-1-26,62,44,26,16,8,0,45,25,9,30.20,29.92,14,1,14,0.00
2014-1-27,53,41,30,22,17,13,59,40,23,30.10,29.90,11,1,11,0.00
2014-1-28,53,38,24,16,8,-3,65,33,14,30.24,29.99,10,1,14,0.00
2014-1-29,56,40,24,9,6,1,50,26,12,30.26,29.98,10,1,11,0.00
2014-1-30,68,51,32,30,21,8,51,32,21,29.98,29.67,22,3,22,0.00
2014-1-31,60,51,43,30,26,21,51,38,30,29.69,29.52,23,3,23,0.00
2014-2-1,52,44,37,26,21,12,56,41,23,29.96,29.65,20,3,20,0.00
2014-2-2,49,38,27,21,17,14,65,44,26,30.14,29.96,10,2,10,0.00
2014-2-3,52,40,33,32,24,16,91,55,24,30.00,29.72,15,1,15,0.01
2014-2-4,43,34,30,32,25,19,93,72,41,30.15,29.78,18,1,18,0.12
2014-2-5,35,29,21,27,24,17,89,82,63,30.28,30.15,11,1,13,0.03
2014-2-6,32,26,20,26,21,15,89,81,72,30.38,30.18,7,1,7,0.05
2014-2-7,50,36,27,33,25,21,89,65,33,30.22,30.07,10,1,10,0.01
2014-2-8,59,41,26,30,27,22,90,62,32,30.29,30.13,8,0,8,0.00
2014-2-9,68,48,31,35,30,26,84,54,28,30.19,29.90,8,0,8,0.00
2014-2-10,67,50,35,32,29,22,80,49,21,29.97,29.76,15,2,15,0.00
2014-2-11,56,44,32,30,25,12,76,49,27,30.12,29.91,14,1,14,0.00
2014-2-12,60,46,33,21,18,15,55,33,18,30.26,30.01,14,2,14,0.00
2014-2-13,70,53,38,25,22,17,49,31,16,30.11,29.86,17,2,17,0.00
2014-2-14,70,56,41,29,25,20,50,31,19,30.01,29.88,17,3,18,0.00
2014-2-15,72,52,35,29,24,17,69,40,13,30.06,29.91,8,0,8,0.00
2014-2-16,71,55,38,21,17,9,47,25,9,30.02,29.83,18,2,20,0.00
2014-2-17,69,52,34,22,10,-11,51,24,4,30.16,29.96,11,1,11,0.00
2014-2-18,72,54,38,23,17,11,44,25,10,30.05,29.86,10,1,10,0.00
2014-2-19,70,56,42,21,16,10,39,23,11,29.88,29.46,24,4,24,0.00
2014-2-20,50,41,32,21,0,-14,38,20,7,30.18,29.68,25,4,25,0.00
2014-2-21,60,41,24,13,4,-5,38,22,10,30.23,29.97,13,1,13,0.00
2014-2-22,65,47,27,17,14,11,59,30,13,30.05,29.85,8,1,12,0.00
2014-2-23,69,48,30,19,17,12,58,31,11,30.09,29.93,10,1,10,0.00
2014-2-24,71,51,30,17,15,11,57,28,11,30.13,29.91,8,0,9,0.00
2014-2-25,68,52,35,21,18,14,45,28,15,30.04,29.80,10,1,10,0.00
2014-2-26,68,49,30,25,21,16,70,37,14,30.04,29.81,10,1,10,0.00
2014-2-27,69,53,36,34,25,16,62,36,14,29.93,29.54,23,3,23,0.00
2014-2-28,68,50,37,33,25,20,62,39,18,29.92,29.75,17,2,17,0.00
2014-3-1,61,48,37,46,33,23,80,57,32,29.91,29.74,20,3,23,0.11
2014-3-2,58,47,39,40,33,24,85,62,31,30.11,29.81,19,3,19,0.03
2014-3-3,60,46,32,33,28,24,86,54,26,30.17,30.01,7,1,8,0.00
2014-3-4,58,45,30,41,30,25,86,59,29,30.07,29.84,11,1,13,0.03
2014-3-5,65,51,40,38,29,14,81,49,15,30.14,29.94,16,2,17,0.00
2014-3-6,65,49,32,29,23,17,77,41,16,30.19,29.87,5,1,7,0.00
2014-3-7,66,52,39,32,25,21,51,36,23,29.90,29.69,18,3,19,0.00
2014-3-8,55,45,36,32,26,21,71,49,28,30.36,29.90,14,1,15,0.00
2014-3-9,66,46,30,28,19,5,78,43,10,30.44,30.18,7,1,7,0.00
2014-3-10,72,52,31,18,14,9,56,27,9,30.20,29.82,9,1,10,0.00
2014-3-11,62,51,38,21,13,2,48,23,11,30.04,29.78,21,3,21,0.00
2014-3-12,57,45,34,19,15,13,47,32,18,30.34,30.04,22,4,28,0.00
2014-3-13,64,48,28,36,21,15,60,38,18,30.24,29.88,14,2,15,0.00
2014-3-14,60,48,38,43,36,32,90,67,37,30.03,29.90,15,2,17,0.31
2014-3-15,56,45,38,43,31,13,96,64,27,30.20,29.87,29,3,29,0.01
2014-3-16,62,46,30,19,14,8,51,29,13,30.37,30.10,17,2,17,0.00
2014-3-17,76,54,33,20,14,-5,58,26,4,30.12,29.44,25,4,33,0.00
2014-3-18,57,48,37,14,4,-5,28,17,8,29.98,29.47,18,3,20,0.00
2014-3-19,62,45,27,17,9,-1,55,26,8,30.27,29.98,18,1,18,0.00
2014-3-20,71,50,27,18,8,-2,49,23,6,30.24,29.86,14,1,14,0.00
2014-3-21,75,58,40,19,10,-12,39,17,4,29.89,29.69,23,2,26,0.00
2014-3-22,67,55,37,22,18,12,50,26,13,29.96,29.80,28,3,28,0.00
2014-3-23,66,52,40,26,23,18,51,34,19,30.18,29.94,29,3,29,0.00
2014-3-24,72,54,35,25,9,-11,62,25,4,30.12,29.96,18,2,18,0.00
2014-3-25,73,54,33,35,19,9,52,28,9,30.11,29.78,21,2,21,0.00
2014-3-26,68,56,43,41,29,13,78,43,12,29.83,29.42,24,4,25,0.00
2014-3-27,64,52,40,31,24,17,66,37,19,29.82,29.59,16,2,16,0.00
2014-3-28,66,54,39,25,18,12,55,26,13,30.09,29.82,19,3,19,0.00
2014-3-29,72,55,37,22,16,12,45,24,11,30.22,29.92,12,2,13,0.00
2014-3-30,75,59,42,24,16,5,49,21,7,29.94,29.58,23,3,27,0.00
2014-3-31,68,54,41,19,12,5,35,20,9,29.92,29.74,15,2,16,0.00
2014-4-1,77,58,37,19,10,0,42,17,5,29.85,29.58,25,4,27,0.00
2014-4-2,72,57,41,14,4,-11,24,13,5,29.66,29.42,24,4,26,0.00
2014-4-3,58,46,37,22,16,8,50,31,14,30.09,29.65,20,3,20,0.00
2014-4-4,65,48,31,25,17,6,70,36,11,30.17,29.83,14,2,14,0.00
2014-4-5,65,52,42,31,22,10,57,32,12,29.84,29.63,20,2,20,0.00
2014-4-6,64,49,33,31,23,6,79,43,12,29.90,29.75,13,2,20,0.00
2014-4-7,68,52,36,32,20,8,79,36,10,30.14,29.90,18,2,18,0.00
2014-4-8,77,57,37,24,18,7,53,25,8,30.25,30.03,11,1,11,0.00
2014-4-9,83,62,40,21,14,-1,45,19,4,30.12,29.80,12,1,12,0.00
2014-4-10,84,66,45,19,4,-16,30,11,2,29.92,29.71,13,1,14,0.00
2014-4-11,80,63,43,21,7,-11,36,13,3,29.92,29.73,18,2,18,0.00
2014-4-12,77,63,50,28,18,8,32,18,9,29.77,29.44,16,2,18,0.00
2014-4-13,78,58,46,37,22,11,60,29,10,29.74,29.36,24,3,26,0.00
2014-4-14,58,47,39,34,21,14,63,36,18,30.18,29.74,14,2,14,0.00
2014-4-15,69,52,32,20,14,4,59,27,9,30.21,29.81,13,2,16,0.00
2014-4-16,76,59,37,25,12,0,41,18,5,29.82,29.59,20,2,23,0.00
2014-4-17,73,59,40,32,26,21,64,31,15,29.98,29.77,14,2,15,0.00
2014-4-18,80,63,43,42,27,18,53,29,10,30.01,29.75,21,3,21,0.00
2014-4-19,62,56,48,48,43,39,82,63,46,29.96,29.83,19,2,19,0.01
2014-4-20,77,62,48,48,39,22,89,52,16,30.01,29.83,14,2,14,0.01
2014-4-21,84,67,46,42,34,18,71,35,9,30.01,29.83,21,2,23,0.00
2014-4-22,82,70,58,42,35,23,52,29,13,29.88,29.52,23,5,24,0.00
2014-4-23,79,65,52,35,23,10,50,23,8,29.71,29.44,21,3,21,0.00
2014-4-24,75,59,44,16,10,0,29,16,6,29.98,29.71,13,2,13,0.00
2014-4-25,81,62,39,19,12,5,41,16,6,29.90,29.56,17,2,17,0.00
2014-4-26,74,59,39,33,20,7,69,26,11,29.60,29.25,32,4,32,0.00
2014-4-27,61,50,39,30,23,12,69,37,15,29.75,29.55,19,4,19,0.00
2014-4-28,64,51,38,33,18,-4,55,31,8,29.98,29.74,26,4,26,0.00
2014-4-29,63,50,37,15,7,-1,37,19,8,30.11,29.98,12,2,15,0.00
2014-4-30,64,52,39,24,20,13,46,29,15,30.17,30.00,23,3,23,0.00
2014-5-1,68,55,44,26,21,17,37,27,15,30.18,29.94,20,4,20,0.00
2014-5-2,79,59,40,29,23,12,58,30,8,30.13,29.87,14,2,14,0.00
2014-5-3,87,67,45,24,18,10,40,18,6,29.99,29.75,12,2,12,0.00
2014-5-4,88,71,49,26,12,-4,39,13,3,29.89,29.66,20,2,20,0.00
2014-5-5,86,70,50,25,14,2,36,13,5,29.83,29.54,14,2,14,0.00
2014-5-6,82,68,49,26,11,-16,40,14,2,29.63,29.37,19,3,21,0.00
2014-5-7,74,63,54,22,11,-2,21,14,5,29.68,29.40,28,4,28,0.00
2014-5-8,64,53,43,43,26,14,73,36,21,29.96,29.68,22,2,22,0.09
2014-5-9,78,59,38,32,25,16,74,34,10,30.02,29.73,17,2,18,0.00
2014-5-10,82,66,49,37,25,18,52,23,10,29.79,29.39,18,3,18,0.00
2014-5-11,80,66,53,30,22,10,34,20,7,29.64,29.23,30,4,30,0.00
2014-5-12,65,52,44,38,29,20,76,43,23,30.11,29.64,16,2,16,0.00
2014-5-13,58,47,39,34,27,22,76,49,28,30.40,30.11,15,4,20,0.01
2014-5-14,67,51,34,29,21,11,74,37,12,30.48,30.21,12,1,12,0.00
2014-5-15,80,59,37,26,18,11,56,24,8,30.26,29.98,15,2,15,0.00
2014-5-16,88,68,46,32,21,14,47,20,7,30.03,29.70,12,1,12,0.00
2014-5-17,89,73,58,37,27,16,43,21,8,29.80,29.56,14,1,18,0.00
2014-5-18,90,73,52,35,10,-25,48,14,2,29.73,29.53,16,2,18,0.00
2014-5-19,91,72,50,91,13,-27,38,10,1,29.70,29.52,17,2,19,0.00
2014-5-20,89,72,51,23,6,-14,27,10,2,29.78,29.59,19,3,19,0.00
2014-5-21,86,72,54,29,18,6,31,15,5,29.79,29.62,22,3,22,0.00
2014-5-22,83,70,54,46,32,17,51,28,12,29.86,29.66,25,3,25,0.00
2014-5-23,77,62,54,55,48,40,85,62,28,29.89,29.70,19,3,21,0.20
2014-5-24,68,59,51,51,45,39,87,63,38,29.92,29.78,18,2,20,0.07
2014-5-25,70,54,43,50,43,33,95,70,27,29.96,29.85,15,1,15,0.25
2014-5-26,76,60,45,49,44,37,97,62,28,30.02,29.87,9,1,10,0.01
2014-5-27,91,71,49,47,40,25,83,40,10,30.00,29.76,16,1,17,0.00
2014-5-28,94,78,57,48,39,12,66,30,6,29.83,29.62,31,3,31,0.00
2014-5-29,89,74,61,48,44,37,59,35,17,29.78,29.61,23,2,23,0.00
2014-5-30,89,75,63,50,44,35,59,36,16,29.80,29.61,14,1,14,0.00
2014-5-31,94,78,58,46,39,30,56,28,12,29.78,29.54,16,2,17,0.00
2014-6-1,96,80,60,40,24,6,43,16,4,29.66,29.49,13,2,16,0.00
2014-6-2,97,79,56,34,20,-6,38,15,2,29.75,29.59,13,1,13,0.00
2014-6-3,100,82,60,46,30,16,49,19,5,29.68,29.45,11,1,13,0.00
2014-6-4,101,82,60,36,18,-10,37,13,2,29.64,29.41,11,2,13,0.00
2014-6-5,99,80,56,46,18,-21,33,14,1,29.62,29.42,20,2,22,0.00
2014-6-6,101,83,64,55,26,-17,52,20,1,29.54,29.34,15,2,15,0.00
2014-6-7,93,76,62,56,46,19,65,36,17,29.62,29.44,27,4,28,0.00
2014-6-8,94,78,65,51,37,17,53,28,6,29.67,29.42,19,4,19,0.00
2014-6-9,92,74,56,36,16,-26,40,16,1,29.76,29.59,19,2,19,0.00
2014-6-10,95,75,52,36,24,4,54,20,4,29.80,29.57,13,2,14,0.00
2014-6-11,91,79,64,39,31,20,35,18,11,29.64,29.50,27,2,28,0.00
2014-6-12,95,79,63,50,29,13,46,19,6,29.74,29.58,31,3,32,0.00
2014-6-13,89,74,60,55,49,40,77,43,19,29.73,29.50,25,3,26,0.01
2014-6-14,94,77,59,49,29,-6,60,26,3,29.62,29.41,26,3,32,0.00
2014-6-15,93,74,50,28,14,-14,38,13,2,29.70,29.52,15,2,15,0.00
2014-6-16,93,79,61,29,20,8,24,12,5,29.70,29.51,18,3,21,0.00
2014-6-17,91,77,60,59,36,29,55,24,12,29.68,29.53,26,3,29,0.06
2014-6-18,88,75,60,45,38,31,52,29,13,29.69,29.57,19,2,22,0.00
2014-6-19,93,78,57,39,28,14,49,19,6,29.82,29.66,14,1,15,0.00
2014-6-20,98,80,60,48,35,18,41,22,7,29.82,29.58,18,2,18,0.00
2014-6-21,100,82,65,50,38,22,55,27,7,29.68,29.49,12,1,16,0.00
2014-6-22,98,81,60,50,30,9,63,22,5,29.66,29.47,17,2,18,0.00
2014-6-23,96,80,64,46,32,13,43,20,5,29.71,29.56,22,2,24,0.00
2014-6-24,96,82,65,49,35,18,52,23,6,29.75,29.55,15,2,15,0.00
2014-6-25,96,82,65,53,35,18,58,23,6,29.72,29.51,16,2,17,0.00
2014-6-26,101,82,60,46,27,9,42,18,5,29.67,29.39,13,2,17,0.00
2014-6-27,94,83,74,37,31,19,25,16,10,29.49,29.32,23,2,23,0.00
2014-6-28,98,82,66,39,30,19,33,18,6,29.62,29.43,12,2,12,0.00
2014-6-29,104,84,62,41,34,27,40,19,8,29.72,29.50,9,1,9,0.00
2014-6-30,104,87,67,45,35,21,40,18,7,29.61,29.39,20,1,20,0.00
2014-7-1,95,81,69,55,47,35,52,31,17,29.70,29.46,29,4,29,0.00
2014-7-2,91,79,69,56,49,45,57,37,21,29.83,29.67,29,4,30,0.00
2014-7-3,95,76,60,59,53,36,86,51,14,29.99,29.68,24,3,26,0.33
2014-7-4,90,75,60,57,52,43,85,49,22,29.94,29.80,23,2,27,0.01
2014-7-5,95,77,65,62,55,47,89,52,21,29.92,29.72,21,2,21,0.31
2014-7-6,99,78,64,60,56,45,85,51,18,29.86,29.65,17,1,17,0.00
2014-7-7,98,81,62,58,52,42,80,43,18,29.79,29.59,11,1,11,0.00
2014-7-8,94,80,67,55,51,44,61,38,20,29.83,29.63,20,4,22,0.00
2014-7-9,93,76,65,56,53,47,69,49,21,29.84,29.68,17,2,17,0.00
2014-7-10,96,84,73,57,52,47,49,35,20,29.77,29.59,20,2,20,0.08
2014-7-11,99,79,66,63,54,48,71,47,19,29.83,29.60,17,1,17,0.08
2014-7-12,97,79,63,61,55,47,85,48,24,29.84,29.70,13,1,14,0.00
2014-7-13,90,78,68,64,54,51,60,46,29,29.87,29.72,20,2,20,0.04
2014-7-14,95,78,63,61,55,49,81,50,21,29.93,29.72,24,2,25,0.21
2014-7-15,85,72,61,61,57,51,92,64,33,29.96,29.73,18,1,19,0.20
2014-7-16,90,72,62,62,57,51,93,63,33,29.83,29.58,26,2,26,0.66
2014-7-17,93,75,61,61,57,40,93,59,18,29.76,29.61,32,2,32,0.01
2014-7-18,99,80,62,61,53,38,87,46,13,29.76,29.58,17,1,17,0.00
2014-7-19,98,82,69,59,54,45,67,41,20,29.72,29.59,24,2,24,0.00
2014-7-20,102,82,64,56,51,41,73,39,14,29.77,29.59,14,1,15,0.00
2014-7-21,101,85,71,57,49,40,57,32,13,29.78,29.65,11,1,11,0.00
2014-7-22,103,83,69,64,51,40,85,37,12,29.89,29.70,18,2,22,0.26
2014-7-23,93,78,64,60,56,47,80,51,28,29.94,29.82,14,1,14,0.00
2014-7-24,96,81,64,56,48,35,75,36,12,29.91,29.69,11,1,11,0.00
2014-7-25,102,86,69,49,44,41,43,25,13,29.78,29.56,8,1,10,0.00
2014-7-26,105,86,70,51,46,37,46,27,11,29.72,29.54,16,1,16,0.00
2014-7-27,96,80,71,68,54,46,76,43,23,29.88,29.65,20,2,23,0.12
2014-7-28,88,77,66,62,56,50,73,51,29,30.01,29.85,22,3,23,0.04
2014-7-29,90,72,64,67,62,56,93,72,34,29.93,29.75,16,1,17,0.45
2014-7-30,94,76,62,63,58,50,92,59,24,29.87,29.70,29,2,29,0.02
2014-7-31,86,72,64,61,58,53,86,64,39,29.92,29.75,21,2,24,0.17
2014-8-1,85,72,59,61,57,52,92,62,34,29.95,29.80,15,2,15,1.09
2014-8-2,81,69,61,62,55,46,93,65,31,29.99,29.88,19,4,21,0.17
2014-8-3,85,72,62,63,55,50,84,58,36,29.99,29.83,12,2,12,0.09
2014-8-4,86,74,62,62,59,53,87,63,35,29.91,29.79,21,2,21,0.05
2014-8-5,90,75,61,60,57,52,90,58,29,29.93,29.75,11,1,11,0.00
2014-8-6,95,79,62,60,50,37,83,44,15,29.84,29.67,9,1,10,0.00
2014-8-7,80,70,63,59,53,48,81,57,35,29.84,29.70,22,2,22,0.00
2014-8-8,89,72,55,57,53,48,93,57,28,29.90,29.72,10,1,11,0.00
2014-8-9,94,76,59,57,50,34,81,45,14,29.83,29.69,18,2,18,0.00
2014-8-10,90,74,60,57,51,46,73,48,25,29.97,29.80,13,2,15,0.00
2014-8-11,90,76,65,55,52,47,67,44,26,29.99,29.84,16,2,16,0.00
2014-8-12,93,78,65,59,54,47,73,45,21,29.97,29.74,12,2,13,0.00
2014-8-13,84,74,67,60,57,54,71,56,41,29.87,29.78,12,1,14,0.00
2014-8-14,86,74,64,62,59,55,89,62,37,29.89,29.72,10,1,12,0.02
2014-8-15,93,76,62,64,56,50,82,55,24,29.85,29.67,13,1,14,0.14
2014-8-16,96,77,60,61,53,41,93,52,16,29.86,29.70,18,2,18,0.00
2014-8-17,98,78,63,64,52,44,72,43,17,29.82,29.67,16,1,22,0.03
2014-8-18,96,79,60,54,50,43,77,41,17,29.79,29.59,11,1,11,0.00
2014-8-19,94,77,64,54,49,36,66,40,14,29.67,29.49,15,2,15,0.00
2014-8-20,92,77,66,56,50,43,68,43,19,29.70,29.59,12,1,13,0.00
2014-8-21,92,77,60,50,43,28,68,34,10,29.79,29.65,12,1,13,0.00
2014-8-22,75,66,58,60,54,47,91,67,38,29.87,29.70,13,1,16,0.18
2014-8-23,86,69,54,61,54,47,96,64,27,29.93,29.72,12,1,12,0.01
2014-8-24,92,75,57,55,48,37,83,44,15,29.81,29.65,10,1,12,0.00
2014-8-25,92,77,62,53,49,43,65,40,21,29.79,29.65,18,2,19,0.00
2014-8-26,83,72,62,59,54,51,72,55,36,29.90,29.77,11,1,11,0.00
2014-8-27,83,70,59,60,55,49,94,64,32,29.97,29.84,16,1,17,0.10